createdAt,value
2018-09-19T00:00:44.436Z,3.30
2018-09-19T00:03:20.467Z,2.87
2018-09-19T00:05:56.436Z,3.08
2018-09-19T00:08:32.560Z,3.85
2018-09-19T00:11:08.776Z,2.95
2018-09-19T00:13:44.614Z,2.73
2018-09-19T00:16:20.627Z,3.00
2018-09-19T00:18:57.261Z,2.80
2018-09-19T00:21:34.276Z,3.30
2018-09-19T00:24:11.618Z,3.17
2018-09-19T00:26:50.457Z,3.10
2018-09-19T00:29:26.851Z,2.63
2018-09-19T00:32:02.450Z,2.80
2018-09-19T00:34:38.463Z,2.33
2018-09-19T00:37:14.630Z,2.87
2018-09-19T00:39:51.169Z,3.00
2018-09-19T00:42:27.314Z,2.77
2018-09-19T00:47:58.433Z,2.77
2018-09-19T00:50:34.418Z,2.67
2018-09-19T00:53:10.339Z,2.67
2018-09-19T00:55:46.406Z,2.67
2018-09-19T00:58:22.789Z,2.58
2018-09-19T01:00:58.883Z,2.65
2018-09-19T01:03:35.898Z,2.30
2018-09-19T01:06:12.324Z,2.42
2018-09-19T01:08:50.116Z,2.40
2018-09-19T01:11:28.233Z,2.53
2018-09-19T01:14:04.618Z,2.42
2018-09-19T01:16:40.637Z,2.30
2018-09-19T01:19:16.627Z,2.50
2018-09-19T01:21:52.661Z,2.80
2018-09-19T01:24:28.648Z,2.30
2018-09-19T01:27:04.093Z,3.30
2018-09-19T01:29:39.461Z,2.90
2018-09-19T01:32:14.643Z,2.40
2018-09-19T01:34:50.113Z,2.30
2018-09-19T01:37:26.295Z,2.40
2018-09-19T01:40:01.668Z,2.90
2018-09-19T01:45:10.496Z,2.47
2018-09-19T01:47:46.126Z,2.60
2018-09-19T01:50:21.487Z,3.03
2018-09-19T01:52:57.128Z,2.85
2018-09-19T01:55:32.658Z,4.07
2018-09-19T01:58:07.890Z,3.30
2018-09-19T02:00:43.657Z,3.10
2018-09-19T02:03:19.232Z,2.95
2018-09-19T02:05:55.089Z,2.80
2018-09-19T02:08:31.110Z,2.90
2018-09-19T02:11:07.281Z,2.95
2018-09-19T02:13:42.863Z,2.60
2018-09-19T02:16:19.241Z,3.12
2018-09-19T02:18:55.278Z,2.65
2018-09-19T02:21:31.106Z,3.05
2018-09-19T02:24:06.456Z,2.90
2018-09-19T02:26:42.193Z,3.20
2018-09-19T02:29:17.658Z,3.08
2018-09-19T02:31:53.309Z,3.20
2018-09-19T02:34:28.618Z,3.33
2018-09-19T02:37:04.157Z,2.87
2018-09-19T02:39:39.489Z,3.03
2018-09-19T02:42:14.862Z,2.80
2018-09-19T02:44:50.321Z,3.00
2018-09-19T02:47:26.221Z,2.90
2018-09-19T02:50:01.846Z,2.72
2018-09-19T02:52:37.466Z,2.83
2018-09-19T02:55:13.157Z,2.83
2018-09-19T02:57:48.492Z,2.87
2018-09-19T03:00:23.893Z,2.80
2018-09-19T03:02:59.497Z,2.55
2018-09-19T03:05:35.066Z,3.10
2018-09-19T03:08:10.525Z,3.23
2018-09-19T03:10:46.140Z,3.60
2018-09-19T03:13:22.459Z,3.10
2018-09-19T03:15:58.205Z,2.85
2018-09-19T03:18:33.864Z,2.90
2018-09-19T03:21:09.486Z,3.20
2018-09-19T03:23:44.863Z,3.35
2018-09-19T03:26:20.533Z,3.60
2018-09-19T03:28:55.893Z,3.27
2018-09-19T03:31:31.521Z,3.55
2018-09-19T03:34:06.899Z,2.90
2018-09-19T03:36:42.265Z,3.07
2018-09-19T03:39:17.737Z,3.05
2018-09-19T03:41:53.523Z,3.20
2018-09-19T03:44:28.861Z,3.15
2018-09-19T03:47:04.441Z,3.30
2018-09-19T03:49:40.147Z,3.30
2018-09-19T03:52:15.689Z,3.20
2018-09-19T03:54:51.516Z,3.13
2018-09-19T03:57:26.951Z,3.75
2018-09-19T04:00:02.716Z,3.55
2018-09-19T04:02:38.399Z,3.60
2018-09-19T04:05:14.273Z,3.58
2018-09-19T04:07:49.900Z,3.58
2018-09-19T04:10:25.273Z,4.03
2018-09-19T04:13:00.908Z,3.77
2018-09-19T04:15:36.735Z,3.50
2018-09-19T04:18:12.160Z,3.00
2018-09-19T04:20:47.693Z,3.08
2018-09-19T04:23:23.094Z,2.60
2018-09-19T04:25:58.408Z,2.50
2018-09-19T04:28:35.069Z,2.40
2018-09-19T04:31:10.653Z,2.67
2018-09-19T04:33:46.357Z,2.53
2018-09-19T04:36:21.720Z,2.30
2018-09-19T04:38:57.183Z,2.40
2018-09-19T04:41:32.716Z,2.10
2018-09-19T04:44:08.284Z,2.10
2018-09-19T04:46:44.166Z,2.50
2018-09-19T04:49:19.759Z,1.75
2018-09-19T04:51:55.711Z,1.90
2018-09-19T04:54:31.757Z,1.72
2018-09-19T04:57:07.706Z,1.60
2018-09-19T04:59:43.717Z,1.50
2018-09-19T05:02:19.552Z,1.27
2018-09-19T05:04:55.547Z,1.12
2018-09-19T05:07:31.664Z,1.30
2018-09-19T05:10:07.572Z,1.00
2018-09-19T05:12:43.713Z,1.37
2018-09-19T05:15:19.734Z,1.15
2018-09-19T05:17:55.748Z,1.00
2018-09-19T05:20:31.728Z,0.97
2018-09-19T05:23:07.899Z,0.95
2018-09-19T05:25:43.716Z,1.00
2018-09-19T05:28:20.518Z,0.95
2018-09-19T05:30:56.321Z,0.85
2018-09-19T05:33:32.345Z,0.80
2018-09-19T05:36:08.336Z,0.90
2018-09-19T05:38:44.550Z,0.80
2018-09-19T05:41:21.322Z,0.80
2018-09-19T05:43:57.252Z,0.80
2018-09-19T05:46:33.214Z,0.90
2018-09-19T05:49:09.393Z,1.00
2018-09-19T05:51:45.552Z,0.93
2018-09-19T05:54:21.611Z,0.80
2018-09-19T05:56:57.348Z,0.90
2018-09-19T05:59:33.394Z,0.72
2018-09-19T06:02:09.198Z,0.70
2018-09-19T06:04:45.391Z,0.65
2018-09-19T06:07:21.203Z,0.90
2018-09-19T06:09:57.401Z,0.70
2018-09-19T06:12:33.192Z,0.77
2018-09-19T06:15:09.567Z,0.78
2018-09-19T06:17:45.737Z,1.00
2018-09-19T06:20:21.848Z,0.80
2018-09-19T06:22:58.202Z,0.90
2018-09-19T06:25:34.229Z,0.80
2018-09-19T06:28:10.371Z,0.80
2018-09-19T06:30:46.389Z,0.90
2018-09-19T06:33:22.563Z,0.80
2018-09-19T06:35:58.386Z,0.80
2018-09-19T06:38:34.601Z,0.80
2018-09-19T06:41:10.463Z,0.90
2018-09-19T06:43:47.005Z,0.60
2018-09-19T06:46:23.481Z,0.70
2018-09-19T06:48:59.471Z,0.80
2018-09-19T06:51:35.568Z,1.80
2018-09-19T06:54:11.576Z,1.20
2018-09-19T06:56:47.578Z,1.95
2018-09-19T06:59:23.562Z,2.10
2018-09-19T07:01:59.578Z,1.90
2018-09-19T07:04:35.553Z,1.57
2018-09-19T07:07:11.577Z,2.08
2018-09-19T07:09:47.577Z,2.33
2018-09-19T07:12:23.484Z,1.80
2018-09-19T07:14:59.309Z,1.50
2018-09-19T07:17:35.550Z,1.70
2018-09-19T07:20:11.582Z,1.40
2018-09-19T07:22:47.577Z,1.35
2018-09-19T07:25:23.713Z,1.50
2018-09-19T07:27:59.585Z,1.63
2018-09-19T07:30:35.593Z,1.20
2018-09-19T07:33:11.490Z,1.20
2018-09-19T07:35:47.689Z,1.20
2018-09-19T07:38:23.483Z,1.65
2018-09-19T07:40:59.523Z,1.47
2018-09-19T07:43:35.922Z,1.40
2018-09-19T07:46:11.972Z,1.83
2018-09-19T07:48:47.935Z,1.20
2018-09-19T07:51:23.955Z,1.63
2018-09-19T07:53:59.796Z,1.33
2018-09-19T07:56:35.506Z,1.60
2018-09-19T07:59:11.928Z,1.70
2018-09-19T08:01:47.942Z,1.27
2018-09-19T08:04:23.588Z,1.80
2018-09-19T08:06:59.507Z,1.60
2018-09-19T08:09:35.590Z,2.00
2018-09-19T08:12:11.573Z,1.50
2018-09-19T08:14:47.603Z,1.60
2018-09-19T08:17:23.511Z,2.30
2018-09-19T08:19:59.775Z,1.63
2018-09-19T08:22:35.660Z,1.65
2018-09-19T08:25:11.809Z,1.40
2018-09-19T08:27:47.601Z,1.40
2018-09-19T08:30:23.606Z,1.60
2018-09-19T08:32:59.527Z,1.27
2018-09-19T08:35:35.512Z,1.37
2018-09-19T08:38:11.602Z,1.30
2018-09-19T08:40:47.477Z,1.40
2018-09-19T08:43:23.513Z,1.50
2018-09-19T08:45:59.860Z,1.55
2018-09-19T08:48:35.591Z,1.35
2018-09-19T08:51:11.526Z,1.30
2018-09-19T08:53:47.625Z,1.50
2018-09-19T08:56:23.787Z,1.40
2018-09-19T08:58:59.615Z,1.30
2018-09-19T09:01:35.617Z,1.50
2018-09-19T09:04:11.606Z,1.10
2018-09-19T09:06:47.616Z,1.40
2018-09-19T09:09:23.609Z,1.20
2018-09-19T09:12:00.436Z,1.20
2018-09-19T09:14:36.425Z,1.25
2018-09-19T09:17:12.050Z,1.63
2018-09-19T09:19:48.470Z,1.30
2018-09-19T09:22:24.622Z,1.53
2018-09-19T09:25:00.503Z,1.50
2018-09-19T09:27:37.299Z,1.50
2018-09-19T09:30:13.803Z,1.57
2018-09-19T09:32:49.798Z,1.67
2018-09-19T09:35:25.597Z,1.40
2018-09-19T09:38:01.811Z,1.60
2018-09-19T09:40:37.871Z,1.87
2018-09-19T09:43:14.246Z,2.08
2018-09-19T09:48:23.810Z,1.80
2018-09-19T09:50:59.523Z,1.57
2018-09-19T09:53:35.645Z,1.77
2018-09-19T09:56:11.618Z,1.75
2018-09-19T09:58:47.513Z,1.40
2018-09-19T10:01:23.517Z,1.60
2018-09-19T10:03:59.633Z,1.40
2018-09-19T10:06:35.533Z,1.30
2018-09-19T10:09:13.773Z,1.50
2018-09-19T10:11:49.986Z,1.40
2018-09-19T10:14:26.452Z,1.20
2018-09-19T10:17:02.646Z,1.40
2018-09-19T10:19:39.258Z,1.50
2018-09-19T10:22:15.325Z,1.17
2018-09-19T10:24:51.304Z,1.47
2018-09-19T10:27:27.269Z,1.50
2018-09-19T10:30:03.864Z,1.55
2018-09-19T10:32:39.633Z,1.50
2018-09-19T10:35:15.661Z,1.80
2018-09-19T10:37:51.657Z,1.60
2018-09-19T10:40:27.601Z,1.53
2018-09-19T10:43:03.830Z,1.52
2018-09-19T10:45:39.655Z,1.40
2018-09-19T10:48:15.825Z,1.47
2018-09-19T10:50:51.538Z,1.60
2018-09-19T10:53:27.502Z,1.30
2018-09-19T10:56:03.619Z,1.40
2018-09-19T10:58:39.650Z,1.30
2018-09-19T11:01:15.996Z,1.50
2018-09-19T11:03:51.994Z,1.67
2018-09-19T11:06:27.830Z,1.73
2018-09-19T11:09:04.011Z,1.57
2018-09-19T11:11:40.465Z,2.15
2018-09-19T11:14:16.273Z,1.50
2018-09-19T11:16:52.414Z,1.60
2018-09-19T11:19:28.438Z,1.77
2018-09-19T11:22:04.894Z,1.62
2018-09-19T11:24:40.830Z,2.10
2018-09-19T11:27:16.826Z,1.77
2018-09-19T11:29:52.833Z,2.10
2018-09-19T11:32:28.494Z,1.40
2018-09-19T11:35:04.592Z,1.55
2018-09-19T11:37:40.642Z,1.40
2018-09-19T11:40:16.485Z,1.75
2018-09-19T11:42:52.567Z,1.42
2018-09-19T11:45:28.617Z,1.30
2018-09-19T11:48:04.574Z,1.10
2018-09-19T11:50:40.605Z,1.30
2018-09-19T11:53:20.796Z,1.32
2018-09-19T11:55:56.671Z,1.13
2018-09-19T11:58:33.013Z,1.60
2018-09-19T12:01:09.673Z,1.32
2018-09-19T12:03:45.670Z,1.60
2018-09-19T12:06:21.674Z,1.80
2018-09-19T12:08:57.665Z,1.62
2018-09-19T12:11:33.594Z,1.30
2018-09-19T12:14:09.697Z,1.57
2018-09-19T12:16:45.685Z,1.50
2018-09-19T12:19:21.738Z,1.57
2018-09-19T12:21:57.657Z,1.80
2018-09-19T12:24:33.961Z,1.70
2018-09-19T12:27:09.863Z,1.60
2018-09-19T12:29:46.425Z,1.80
2018-09-19T12:32:22.709Z,1.42
2018-09-19T12:34:58.526Z,1.40
2018-09-19T12:37:34.613Z,1.32
2018-09-19T12:40:10.870Z,1.60
2018-09-19T12:42:46.659Z,1.40
2018-09-19T12:45:22.878Z,1.40
2018-09-19T12:47:59.638Z,1.50
2018-09-19T12:50:35.917Z,1.37
2018-09-19T12:53:11.702Z,1.20
2018-09-19T12:55:48.022Z,1.65
2018-09-19T12:58:24.055Z,1.43
2018-09-19T13:01:00.305Z,1.57
2018-09-19T13:03:36.465Z,1.20
2018-09-19T13:06:13.494Z,1.20
2018-09-19T13:08:51.009Z,1.40
2018-09-19T13:11:27.373Z,1.70
2018-09-19T13:14:03.323Z,1.72
2018-09-19T13:16:39.318Z,1.45
2018-09-19T13:19:15.330Z,1.50
2018-09-19T13:21:51.319Z,1.70
2018-09-19T13:24:27.319Z,2.00
2018-09-19T13:27:03.358Z,1.40
2018-09-19T13:29:39.535Z,1.40
2018-09-19T13:32:15.605Z,1.50
2018-09-19T13:34:51.689Z,1.53
2018-09-19T13:37:27.710Z,1.60
2018-09-19T13:40:03.987Z,1.70
2018-09-19T13:42:40.655Z,1.33
2018-09-19T13:45:16.702Z,1.57
2018-09-19T13:47:52.903Z,1.42
2018-09-19T13:50:54.714Z,1.55
2018-09-19T13:53:30.886Z,1.67
2018-09-19T13:56:07.374Z,1.50
2018-09-19T13:58:43.499Z,1.60
2018-09-19T14:01:19.897Z,2.00
2018-09-19T14:03:55.889Z,1.40
2018-09-19T14:06:31.911Z,1.50
2018-09-19T14:09:10.005Z,1.63
2018-09-19T14:11:45.746Z,1.50
2018-09-19T14:14:21.725Z,1.70
2018-09-19T14:16:57.611Z,1.20
2018-09-19T14:19:33.555Z,1.30
2018-09-19T14:22:09.702Z,2.25
2018-09-19T14:24:45.725Z,1.60
2018-09-19T14:27:21.635Z,2.00
2018-09-19T14:29:57.530Z,2.10
2018-09-19T14:32:33.638Z,2.42
2018-09-19T14:35:09.898Z,2.10
2018-09-19T14:37:45.901Z,2.40
2018-09-19T14:40:21.735Z,2.37
2018-09-19T14:42:57.918Z,2.62
2018-09-19T14:45:34.019Z,2.60
2018-09-19T14:48:10.131Z,2.37
2018-09-19T14:50:46.434Z,2.95
2018-09-19T14:53:22.623Z,2.80
2018-09-19T14:55:58.920Z,3.37
2018-09-19T14:58:35.116Z,3.50
2018-09-19T15:01:11.341Z,3.33
2018-09-19T15:03:47.349Z,3.77
2018-09-19T15:06:22.899Z,3.30
2018-09-19T15:08:58.567Z,4.00
2018-09-19T15:11:34.900Z,7.08
2018-09-19T15:14:10.682Z,5.80
2018-09-19T15:16:46.713Z,4.97
2018-09-19T15:19:22.605Z,4.90
2018-09-19T15:21:58.744Z,4.55
2018-09-19T15:24:34.691Z,4.80
2018-09-19T15:27:11.115Z,4.25
2018-09-19T15:29:47.695Z,4.37
2018-09-19T15:32:24.449Z,4.60
2018-09-19T15:35:00.736Z,4.53
2018-09-19T15:37:36.581Z,4.50
2018-09-19T15:40:12.553Z,4.35
2018-09-19T15:42:48.338Z,4.28
2018-09-19T15:45:24.637Z,4.20
2018-09-19T15:48:00.744Z,4.22
2018-09-19T15:50:36.941Z,4.50
2018-09-19T15:53:12.781Z,3.87
2018-09-19T15:55:48.740Z,4.95
2018-09-19T15:58:24.922Z,5.10
2018-09-19T16:01:01.190Z,5.70
2018-09-19T16:03:37.933Z,6.30
2018-09-19T16:06:13.980Z,4.90
2018-09-19T16:08:49.946Z,4.67
2018-09-19T16:11:25.936Z,4.10
2018-09-19T16:14:02.001Z,4.30
2018-09-19T16:16:37.551Z,4.70
2018-09-19T16:19:13.149Z,5.00
2018-09-19T16:21:48.762Z,5.15
2018-09-19T16:24:24.467Z,5.25
2018-09-19T16:27:00.121Z,6.35
2018-09-19T16:29:35.760Z,4.93
2018-09-19T16:32:11.154Z,4.60
2018-09-19T16:34:46.702Z,4.10
2018-09-19T16:37:22.381Z,4.50
2018-09-19T16:39:57.942Z,4.92
2018-09-19T16:42:33.679Z,4.10
2018-09-19T16:45:08.943Z,4.17
2018-09-19T16:47:44.624Z,4.13
2018-09-19T16:50:20.462Z,4.00
2018-09-19T16:52:56.698Z,4.33
2018-09-19T16:55:32.642Z,4.42
2018-09-19T16:58:08.781Z,9.73
2018-09-19T17:00:44.777Z,12.63
2018-09-19T17:03:20.416Z,9.80
2018-09-19T17:05:56.586Z,7.03
2018-09-19T17:08:31.973Z,6.40
2018-09-19T17:11:07.495Z,5.50
2018-09-19T17:13:42.751Z,5.00
2018-09-19T17:16:18.757Z,4.50
2018-09-19T17:18:54.409Z,4.60
2018-09-19T17:21:30.572Z,4.70
2018-09-19T17:24:05.998Z,4.33
2018-09-19T17:26:41.677Z,4.15
2018-09-19T17:29:17.224Z,4.00
2018-09-19T17:31:52.946Z,4.17
2018-09-19T17:34:29.955Z,4.10
2018-09-19T17:37:05.692Z,4.05
2018-09-19T17:39:41.696Z,3.55
2018-09-19T17:42:17.513Z,3.90
2018-09-19T17:44:53.282Z,3.52
2018-09-19T17:47:28.909Z,3.55
2018-09-19T17:50:04.819Z,3.35
2018-09-19T17:52:40.804Z,3.20
2018-09-19T17:55:16.610Z,3.33
2018-09-19T17:57:52.750Z,3.12
2018-09-19T18:00:28.709Z,3.02
2018-09-19T18:03:04.718Z,3.00
2018-09-19T18:05:41.325Z,3.70
2018-09-19T18:08:17.625Z,3.30
2018-09-19T18:10:53.684Z,3.08
2018-09-19T18:13:29.711Z,2.97
2018-09-19T18:16:05.798Z,3.05
2018-09-19T18:18:41.721Z,3.43
2018-09-19T18:21:17.795Z,3.10
2018-09-19T18:23:54.358Z,3.67
2018-09-19T18:26:29.774Z,3.57
2018-09-19T18:29:05.707Z,3.30
2018-09-19T18:31:41.697Z,2.90
2018-09-19T18:34:18.018Z,3.15
2018-09-19T18:36:53.777Z,3.40
2018-09-19T18:39:29.712Z,3.33
2018-09-19T18:42:05.787Z,3.50
2018-09-19T18:44:41.926Z,3.42
2018-09-19T18:47:17.684Z,3.40
2018-09-19T18:49:54.260Z,3.35
2018-09-19T18:52:30.624Z,4.12
2018-09-19T18:55:06.801Z,3.67
2018-09-19T18:57:42.610Z,3.53
2018-09-19T19:00:18.807Z,3.40
2018-09-19T19:02:54.983Z,4.13
2018-09-19T19:05:30.989Z,3.73
2018-09-19T19:08:06.990Z,4.22
2018-09-19T19:10:42.987Z,3.55
2018-09-19T19:13:19.323Z,4.20
2018-09-19T19:15:55.464Z,4.30
2018-09-19T19:18:31.818Z,4.30
2018-09-19T19:21:07.813Z,4.40
2018-09-19T19:23:43.990Z,4.35
2018-09-19T19:26:19.993Z,4.23
2018-09-19T19:28:55.991Z,4.37
2018-09-19T19:31:32.214Z,4.03
2018-09-19T19:34:08.183Z,4.20
2018-09-19T19:36:44.197Z,4.00
2018-09-19T19:39:19.990Z,4.28
2018-09-19T19:41:55.944Z,3.75
2018-09-19T19:44:32.572Z,4.17
2018-09-19T19:47:08.622Z,3.42
2018-09-19T19:49:44.801Z,3.60
2018-09-19T19:52:20.829Z,3.50
2018-09-19T19:54:56.821Z,3.55
2018-09-19T19:57:32.644Z,3.83
2018-09-19T20:00:08.833Z,3.43
2018-09-19T20:02:44.871Z,3.37
2018-09-19T20:05:20.953Z,3.52
2018-09-19T20:07:56.858Z,3.90
2018-09-19T20:10:32.689Z,3.30
2018-09-19T20:13:09.539Z,3.87
2018-09-19T20:18:43.806Z,3.02
2018-09-19T20:21:20.242Z,2.60
2018-09-19T20:23:56.621Z,2.58
2018-09-19T20:26:32.622Z,2.60
2018-09-19T20:29:08.848Z,2.47
2018-09-19T20:31:44.822Z,2.70
2018-09-19T20:34:20.940Z,2.70
2018-09-19T20:36:57.575Z,2.50
2018-09-19T20:39:33.683Z,2.47
2018-09-19T20:42:09.674Z,2.22
2018-09-19T20:44:45.837Z,2.37
2018-09-19T20:47:21.689Z,2.30
2018-09-19T20:49:57.843Z,2.05
2018-09-19T20:52:34.021Z,2.10
2018-09-19T20:55:09.953Z,2.20
2018-09-19T20:57:45.842Z,2.30
2018-09-19T21:00:21.672Z,2.23
2018-09-19T21:02:57.830Z,2.10
2018-09-19T21:05:34.124Z,2.20
2018-09-19T21:08:10.026Z,2.10
2018-09-19T21:10:46.129Z,2.00
2018-09-19T21:13:22.193Z,2.00
2018-09-19T21:15:58.251Z,3.42
2018-09-19T21:18:33.877Z,2.00
2018-09-19T21:21:09.497Z,2.20
2018-09-19T21:23:45.029Z,1.90
2018-09-19T21:26:20.301Z,2.10
2018-09-19T21:28:55.896Z,2.00
2018-09-19T21:31:31.515Z,1.80
2018-09-19T21:34:07.231Z,2.00
2018-09-19T21:36:42.862Z,2.10
2018-09-19T21:39:18.601Z,1.95
2018-09-19T21:41:54.185Z,1.80
2018-09-19T21:44:29.786Z,2.00
2018-09-19T21:47:05.044Z,1.93
2018-09-19T21:49:40.345Z,1.90
2018-09-19T21:52:15.865Z,2.27
2018-09-19T21:54:51.239Z,2.17
2018-09-19T21:57:27.215Z,2.10
2018-09-19T22:00:02.732Z,2.00
2018-09-19T22:03:44.407Z,2.20
2018-09-19T22:08:53.329Z,1.97
2018-09-19T22:11:28.801Z,1.77
2018-09-19T22:14:04.253Z,2.00
2018-09-19T22:16:39.877Z,1.80
2018-09-19T22:19:15.374Z,1.85
2018-09-19T22:21:51.044Z,2.00
2018-09-19T22:24:26.228Z,1.80
2018-09-19T22:27:02.050Z,2.10
2018-09-19T22:29:37.617Z,1.80
2018-09-19T22:32:13.226Z,2.20
2018-09-19T22:34:48.575Z,1.70
2018-09-19T22:37:25.055Z,1.98
2018-09-19T22:40:00.252Z,2.03
2018-09-19T22:42:35.784Z,1.70
2018-09-19T22:45:11.235Z,2.00
2018-09-19T22:47:47.274Z,1.80
2018-09-19T22:50:23.117Z,2.20
2018-09-19T22:52:58.607Z,2.00
2018-09-19T22:55:33.878Z,1.73
2018-09-19T22:58:09.306Z,2.00
2018-09-19T23:00:44.892Z,2.10
2018-09-19T23:03:21.073Z,2.10
2018-09-19T23:05:56.682Z,2.10
2018-09-19T23:08:32.702Z,2.00
2018-09-19T23:11:08.917Z,1.80
2018-09-19T23:13:45.062Z,2.10
2018-09-19T23:16:20.902Z,2.10
2018-09-19T23:18:56.794Z,2.30
2018-09-19T23:21:32.744Z,2.20
2018-09-19T23:24:08.557Z,2.27
2018-09-19T23:26:44.702Z,2.30
2018-09-19T23:29:21.163Z,2.20
2018-09-19T23:31:57.094Z,2.40
2018-09-19T23:34:33.654Z,2.45
2018-09-19T23:37:09.717Z,2.37
2018-09-19T23:39:45.874Z,2.33
2018-09-19T23:42:21.882Z,1.95
2018-09-19T23:44:59.058Z,2.00
2018-09-19T23:47:36.238Z,2.00
2018-09-19T23:50:12.271Z,2.20
2018-09-19T23:52:48.246Z,2.23
2018-09-19T23:55:24.902Z,2.05
2018-09-19T23:58:01.239Z,1.98
